sensor_id;sensor_type;location;lat;lon;timestamp;P1;durP1;ratioP1;P2;durP2;ratioP2
54460;SDS011;69977;49.414;11.010;2023-11-21T00:00:31;1.73;;;1.03;;
54460;SDS011;69977;49.414;11.010;2023-11-21T00:02:57;1.53;;;1.20;;
54460;SDS011;69977;49.414;11.010;2023-11-21T00:05:22;1.30;;;1.20;;
54460;SDS011;69977;49.414;11.010;2023-11-21T00:07:48;2.47;;;0.70;;
54460;SDS011;69977;49.414;11.010;2023-11-21T00:10:14;2.23;;;0.83;;
54460;SDS011;69977;49.414;11.010;2023-11-21T00:12:41;2.57;;;1.30;;
54460;SDS011;69977;49.414;11.010;2023-11-21T00:15:07;1.40;;;0.70;;
54460;SDS011;69977;49.414;11.010;2023-11-21T00:17:39;2.67;;;0.83;;
54460;SDS011;69977;49.414;11.010;2023-11-21T00:20:06;2.87;;;0.97;;
54460;SDS011;69977;49.414;11.010;2023-11-21T00:22:39;1.70;;;0.80;;
54460;SDS011;69977;49.414;11.010;2023-11-21T00:25:06;2.23;;;0.97;;
54460;SDS011;69977;49.414;11.010;2023-11-21T00:27:34;3.13;;;1.23;;
54460;SDS011;69977;49.414;11.010;2023-11-21T00:30:00;1.73;;;0.87;;
54460;SDS011;69977;49.414;11.010;2023-11-21T00:32:26;1.33;;;1.00;;
54460;SDS011;69977;49.414;11.010;2023-11-21T00:34:52;1.50;;;0.87;;
54460;SDS011;69977;49.414;11.010;2023-11-21T00:37:20;1.00;;;0.97;;
54460;SDS011;69977;49.414;11.010;2023-11-21T00:39:47;1.17;;;0.70;;
54460;SDS011;69977;49.414;11.010;2023-11-21T00:42:12;0.80;;;0.80;;
54460;SDS011;69977;49.414;11.010;2023-11-21T00:44:38;3.70;;;0.93;;
54460;SDS011;69977;49.414;11.010;2023-11-21T00:47:04;2.70;;;1.00;;
54460;SDS011;69977;49.414;11.010;2023-11-21T00:49:30;1.60;;;0.80;;
54460;SDS011;69977;49.414;11.010;2023-11-21T00:51:57;1.33;;;1.00;;
54460;SDS011;69977;49.414;11.010;2023-11-21T00:54:25;1.47;;;1.23;;
54460;SDS011;69977;49.414;11.010;2023-11-21T00:56:52;5.20;;;1.47;;
54460;SDS011;69977;49.414;11.010;2023-11-21T00:59:17;2.60;;;1.23;;
54460;SDS011;69977;49.414;11.010;2023-11-21T01:01:43;3.30;;;1.40;;
54460;SDS011;69977;49.414;11.010;2023-11-21T01:04:09;1.50;;;1.37;;
54460;SDS011;69977;49.414;11.010;2023-11-21T01:06:35;2.53;;;1.33;;
54460;SDS011;69977;49.414;11.010;2023-11-21T01:09:01;2.00;;;1.33;;
54460;SDS011;69977;49.414;11.010;2023-11-21T01:11:33;5.63;;;1.20;;
54460;SDS011;69977;49.414;11.010;2023-11-21T01:14:03;1.57;;;1.07;;
54460;SDS011;69977;49.414;11.010;2023-11-21T01:16:30;2.50;;;1.37;;
54460;SDS011;69977;49.414;11.010;2023-11-21T01:18:57;2.60;;;1.20;;
54460;SDS011;69977;49.414;11.010;2023-11-21T01:21:24;4.00;;;1.03;;
54460;SDS011;69977;49.414;11.010;2023-11-21T01:23:50;1.97;;;1.30;;
54460;SDS011;69977;49.414;11.010;2023-11-21T01:26:16;1.87;;;1.00;;
54460;SDS011;69977;49.414;11.010;2023-11-21T01:28:42;1.80;;;1.00;;
54460;SDS011;69977;49.414;11.010;2023-11-21T01:31:07;2.27;;;1.20;;
54460;SDS011;69977;49.414;11.010;2023-11-21T01:33:33;1.43;;;1.17;;
54460;SDS011;69977;49.414;11.010;2023-11-21T01:35:59;2.57;;;1.10;;
54460;SDS011;69977;49.414;11.010;2023-11-21T01:38:25;4.37;;;1.10;;
54460;SDS011;69977;49.414;11.010;2023-11-21T01:40:51;2.43;;;0.90;;
54460;SDS011;69977;49.414;11.010;2023-11-21T01:43:17;1.57;;;1.37;;
54460;SDS011;69977;49.414;11.010;2023-11-21T01:45:43;1.23;;;1.10;;
54460;SDS011;69977;49.414;11.010;2023-11-21T01:48:10;1.37;;;0.90;;
54460;SDS011;69977;49.414;11.010;2023-11-21T01:50:37;1.47;;;1.17;;
54460;SDS011;69977;49.414;11.010;2023-11-21T01:53:03;1.40;;;1.00;;
54460;SDS011;69977;49.414;11.010;2023-11-21T01:55:30;1.23;;;1.10;;
54460;SDS011;69977;49.414;11.010;2023-11-21T01:57:56;1.17;;;1.03;;
54460;SDS011;69977;49.414;11.010;2023-11-21T02:00:22;1.87;;;1.17;;
54460;SDS011;69977;49.414;11.010;2023-11-21T02:02:48;0.90;;;0.90;;
54460;SDS011;69977;49.414;11.010;2023-11-21T02:05:15;1.30;;;1.20;;
54460;SDS011;69977;49.414;11.010;2023-11-21T02:07:45;1.57;;;0.60;;
54460;SDS011;69977;49.414;11.010;2023-11-21T02:10:16;1.00;;;0.97;;
54460;SDS011;69977;49.414;11.010;2023-11-21T02:12:42;0.80;;;0.80;;
54460;SDS011;69977;49.414;11.010;2023-11-21T02:15:12;4.07;;;1.20;;
54460;SDS011;69977;49.414;11.010;2023-11-21T02:17:49;2.13;;;1.00;;
54460;SDS011;69977;49.414;11.010;2023-11-21T02:20:17;2.80;;;1.20;;
54460;SDS011;69977;49.414;11.010;2023-11-21T02:22:43;1.23;;;1.00;;
54460;SDS011;69977;49.414;11.010;2023-11-21T02:25:23;1.33;;;1.07;;
54460;SDS011;69977;49.414;11.010;2023-11-21T02:27:53;0.73;;;0.73;;
54460;SDS011;69977;49.414;11.010;2023-11-21T02:30:21;1.97;;;1.40;;
54460;SDS011;69977;49.414;11.010;2023-11-21T02:32:50;3.30;;;1.30;;
54460;SDS011;69977;49.414;11.010;2023-11-21T02:35:18;3.80;;;1.20;;
54460;SDS011;69977;49.414;11.010;2023-11-21T02:37:47;1.10;;;0.90;;
54460;SDS011;69977;49.414;11.010;2023-11-21T02:40:13;0.80;;;0.80;;
54460;SDS011;69977;49.414;11.010;2023-11-21T02:42:50;2.17;;;1.20;;
54460;SDS011;69977;49.414;11.010;2023-11-21T02:45:16;1.20;;;1.07;;
54460;SDS011;69977;49.414;11.010;2023-11-21T02:47:44;1.00;;;0.80;;
54460;SDS011;69977;49.414;11.010;2023-11-21T02:50:10;3.20;;;1.10;;
54460;SDS011;69977;49.414;11.010;2023-11-21T02:52:36;1.20;;;1.10;;
54460;SDS011;69977;49.414;11.010;2023-11-21T02:55:02;2.53;;;1.00;;
54460;SDS011;69977;49.414;11.010;2023-11-21T02:57:29;1.03;;;1.00;;
54460;SDS011;69977;49.414;11.010;2023-11-21T02:59:55;1.67;;;0.83;;
54460;SDS011;69977;49.414;11.010;2023-11-21T03:02:21;1.00;;;0.90;;
54460;SDS011;69977;49.414;11.010;2023-11-21T03:04:48;1.33;;;1.20;;
54460;SDS011;69977;49.414;11.010;2023-11-21T03:07:14;1.70;;;0.77;;
54460;SDS011;69977;49.414;11.010;2023-11-21T03:09:40;1.20;;;0.90;;
54460;SDS011;69977;49.414;11.010;2023-11-21T03:12:06;1.00;;;0.60;;
54460;SDS011;69977;49.414;11.010;2023-11-21T03:14:34;1.13;;;1.03;;
54460;SDS011;69977;49.414;11.010;2023-11-21T03:16:59;4.03;;;1.17;;
54460;SDS011;69977;49.414;11.010;2023-11-21T03:19:26;2.33;;;1.10;;
54460;SDS011;69977;49.414;11.010;2023-11-21T03:21:52;2.87;;;1.07;;
54460;SDS011;69977;49.414;11.010;2023-11-21T03:24:18;0.90;;;0.90;;
54460;SDS011;69977;49.414;11.010;2023-11-21T03:26:45;1.30;;;1.07;;
54460;SDS011;69977;49.414;11.010;2023-11-21T03:29:11;0.90;;;0.87;;
54460;SDS011;69977;49.414;11.010;2023-11-21T03:31:38;1.67;;;1.20;;
54460;SDS011;69977;49.414;11.010;2023-11-21T03:34:04;3.80;;;1.30;;
54460;SDS011;69977;49.414;11.010;2023-11-21T03:36:30;1.20;;;0.83;;
54460;SDS011;69977;49.414;11.010;2023-11-21T03:38:55;1.17;;;1.00;;
54460;SDS011;69977;49.414;11.010;2023-11-21T03:41:21;4.23;;;1.60;;
54460;SDS011;69977;49.414;11.010;2023-11-21T03:43:48;1.10;;;1.03;;
54460;SDS011;69977;49.414;11.010;2023-11-21T03:46:14;1.23;;;1.07;;
54460;SDS011;69977;49.414;11.010;2023-11-21T03:48:41;2.27;;;1.23;;
54460;SDS011;69977;49.414;11.010;2023-11-21T03:51:07;1.40;;;1.17;;
54460;SDS011;69977;49.414;11.010;2023-11-21T03:53:33;2.53;;;1.13;;
54460;SDS011;69977;49.414;11.010;2023-11-21T03:56:01;1.23;;;1.13;;
54460;SDS011;69977;49.414;11.010;2023-11-21T03:58:28;1.67;;;1.47;;
54460;SDS011;69977;49.414;11.010;2023-11-21T04:00:54;1.40;;;1.10;;
54460;SDS011;69977;49.414;11.010;2023-11-21T04:03:20;2.57;;;1.10;;
54460;SDS011;69977;49.414;11.010;2023-11-21T04:05:46;1.63;;;1.10;;
54460;SDS011;69977;49.414;11.010;2023-11-21T04:08:12;2.17;;;1.40;;
54460;SDS011;69977;49.414;11.010;2023-11-21T04:10:38;3.27;;;1.40;;
54460;SDS011;69977;49.414;11.010;2023-11-21T04:13:04;4.13;;;1.43;;
54460;SDS011;69977;49.414;11.010;2023-11-21T04:15:31;3.13;;;1.20;;
54460;SDS011;69977;49.414;11.010;2023-11-21T04:17:58;1.30;;;0.97;;
54460;SDS011;69977;49.414;11.010;2023-11-21T04:20:24;3.43;;;1.20;;
54460;SDS011;69977;49.414;11.010;2023-11-21T04:22:49;2.50;;;1.43;;
54460;SDS011;69977;49.414;11.010;2023-11-21T04:25:15;1.63;;;1.23;;
54460;SDS011;69977;49.414;11.010;2023-11-21T04:27:43;1.47;;;1.37;;
54460;SDS011;69977;49.414;11.010;2023-11-21T04:30:13;2.30;;;1.30;;
54460;SDS011;69977;49.414;11.010;2023-11-21T04:32:39;1.50;;;1.40;;
54460;SDS011;69977;49.414;11.010;2023-11-21T04:35:05;2.07;;;1.30;;
54460;SDS011;69977;49.414;11.010;2023-11-21T04:37:31;2.63;;;1.23;;
54460;SDS011;69977;49.414;11.010;2023-11-21T04:39:57;3.17;;;1.50;;
54460;SDS011;69977;49.414;11.010;2023-11-21T04:42:23;1.70;;;1.50;;
54460;SDS011;69977;49.414;11.010;2023-11-21T04:44:49;2.33;;;1.50;;
54460;SDS011;69977;49.414;11.010;2023-11-21T04:47:15;2.23;;;1.20;;
54460;SDS011;69977;49.414;11.010;2023-11-21T04:49:41;2.00;;;1.27;;
54460;SDS011;69977;49.414;11.010;2023-11-21T04:52:08;2.13;;;1.10;;
54460;SDS011;69977;49.414;11.010;2023-11-21T04:54:35;2.50;;;1.60;;
54460;SDS011;69977;49.414;11.010;2023-11-21T04:57:01;2.20;;;1.43;;
54460;SDS011;69977;49.414;11.010;2023-11-21T04:59:27;3.33;;;1.40;;
54460;SDS011;69977;49.414;11.010;2023-11-21T05:01:53;1.47;;;1.37;;
54460;SDS011;69977;49.414;11.010;2023-11-21T05:04:19;2.07;;;1.70;;
54460;SDS011;69977;49.414;11.010;2023-11-21T05:06:47;1.67;;;1.57;;
54460;SDS011;69977;49.414;11.010;2023-11-21T05:09:13;1.67;;;1.57;;
54460;SDS011;69977;49.414;11.010;2023-11-21T05:11:39;1.57;;;1.47;;
54460;SDS011;69977;49.414;11.010;2023-11-21T05:14:06;3.97;;;1.87;;
54460;SDS011;69977;49.414;11.010;2023-11-21T05:16:32;2.00;;;1.37;;
54460;SDS011;69977;49.414;11.010;2023-11-21T05:18:58;3.80;;;2.27;;
54460;SDS011;69977;49.414;11.010;2023-11-21T05:21:26;4.50;;;1.70;;
54460;SDS011;69977;49.414;11.010;2023-11-21T05:23:52;2.23;;;1.57;;
54460;SDS011;69977;49.414;11.010;2023-11-21T05:26:18;2.33;;;1.60;;
54460;SDS011;69977;49.414;11.010;2023-11-21T05:28:44;2.17;;;1.47;;
54460;SDS011;69977;49.414;11.010;2023-11-21T05:31:09;2.37;;;1.47;;
54460;SDS011;69977;49.414;11.010;2023-11-21T05:33:36;2.07;;;1.33;;
54460;SDS011;69977;49.414;11.010;2023-11-21T05:36:02;2.20;;;1.67;;
54460;SDS011;69977;49.414;11.010;2023-11-21T05:38:28;3.67;;;1.90;;
54460;SDS011;69977;49.414;11.010;2023-11-21T05:40:54;2.87;;;1.80;;
54460;SDS011;69977;49.414;11.010;2023-11-21T05:43:20;2.07;;;1.87;;
54460;SDS011;69977;49.414;11.010;2023-11-21T05:45:46;3.00;;;1.40;;
54460;SDS011;69977;49.414;11.010;2023-11-21T05:48:12;3.37;;;2.00;;
54460;SDS011;69977;49.414;11.010;2023-11-21T05:50:37;2.20;;;1.47;;
54460;SDS011;69977;49.414;11.010;2023-11-21T05:53:03;4.37;;;1.63;;
54460;SDS011;69977;49.414;11.010;2023-11-21T05:55:29;3.27;;;1.80;;
54460;SDS011;69977;49.414;11.010;2023-11-21T05:57:55;1.97;;;1.83;;
54460;SDS011;69977;49.414;11.010;2023-11-21T06:00:20;1.80;;;1.70;;
54460;SDS011;69977;49.414;11.010;2023-11-21T06:02:50;4.37;;;2.17;;
54460;SDS011;69977;49.414;11.010;2023-11-21T06:05:21;1.97;;;1.60;;
54460;SDS011;69977;49.414;11.010;2023-11-21T06:07:52;4.60;;;1.90;;
54460;SDS011;69977;49.414;11.010;2023-11-21T06:10:19;2.97;;;1.90;;
54460;SDS011;69977;49.414;11.010;2023-11-21T06:12:46;3.20;;;2.07;;
54460;SDS011;69977;49.414;11.010;2023-11-21T06:15:12;1.90;;;1.70;;
54460;SDS011;69977;49.414;11.010;2023-11-21T06:17:42;3.40;;;2.20;;
54460;SDS011;69977;49.414;11.010;2023-11-21T06:20:09;3.07;;;2.33;;
54460;SDS011;69977;49.414;11.010;2023-11-21T06:22:39;2.40;;;2.20;;
54460;SDS011;69977;49.414;11.010;2023-11-21T06:25:06;2.70;;;2.50;;
54460;SDS011;69977;49.414;11.010;2023-11-21T06:27:34;2.60;;;2.40;;
54460;SDS011;69977;49.414;11.010;2023-11-21T06:30:09;3.23;;;2.77;;
54460;SDS011;69977;49.414;11.010;2023-11-21T06:32:37;2.80;;;2.60;;
54460;SDS011;69977;49.414;11.010;2023-11-21T06:35:05;2.60;;;2.40;;
54460;SDS011;69977;49.414;11.010;2023-11-21T06:37:32;4.87;;;2.67;;
54460;SDS011;69977;49.414;11.010;2023-11-21T06:39:58;6.47;;;2.90;;
54460;SDS011;69977;49.414;11.010;2023-11-21T06:42:25;3.23;;;2.47;;
54460;SDS011;69977;49.414;11.010;2023-11-21T06:44:51;5.57;;;2.60;;
54460;SDS011;69977;49.414;11.010;2023-11-21T06:47:18;4.50;;;2.57;;
54460;SDS011;69977;49.414;11.010;2023-11-21T06:49:45;3.43;;;2.20;;
54460;SDS011;69977;49.414;11.010;2023-11-21T06:52:14;2.47;;;2.27;;
54460;SDS011;69977;49.414;11.010;2023-11-21T06:54:40;4.23;;;3.03;;
54460;SDS011;69977;49.414;11.010;2023-11-21T06:57:06;2.80;;;2.40;;
54460;SDS011;69977;49.414;11.010;2023-11-21T06:59:31;3.80;;;2.77;;
54460;SDS011;69977;49.414;11.010;2023-11-21T07:01:57;2.80;;;2.60;;
54460;SDS011;69977;49.414;11.010;2023-11-21T07:04:23;2.70;;;2.50;;
54460;SDS011;69977;49.414;11.010;2023-11-21T07:06:50;3.00;;;2.70;;
54460;SDS011;69977;49.414;11.010;2023-11-21T07:09:17;3.83;;;2.70;;
54460;SDS011;69977;49.414;11.010;2023-11-21T07:11:47;2.60;;;2.40;;
54460;SDS011;69977;49.414;11.010;2023-11-21T07:14:14;3.83;;;2.80;;
54460;SDS011;69977;49.414;11.010;2023-11-21T07:16:40;4.27;;;3.03;;
54460;SDS011;69977;49.414;11.010;2023-11-21T07:19:06;3.43;;;2.57;;
54460;SDS011;69977;49.414;11.010;2023-11-21T07:21:32;3.67;;;3.27;;
54460;SDS011;69977;49.414;11.010;2023-11-21T07:24:05;4.50;;;3.03;;
54460;SDS011;69977;49.414;11.010;2023-11-21T07:26:31;4.03;;;3.40;;
54460;SDS011;69977;49.414;11.010;2023-11-21T07:29:01;4.00;;;3.20;;
54460;SDS011;69977;49.414;11.010;2023-11-21T07:31:28;4.13;;;3.07;;
54460;SDS011;69977;49.414;11.010;2023-11-21T07:33:54;3.70;;;3.30;;
54460;SDS011;69977;49.414;11.010;2023-11-21T07:36:23;4.43;;;3.30;;
54460;SDS011;69977;49.414;11.010;2023-11-21T07:38:49;3.93;;;3.50;;
54460;SDS011;69977;49.414;11.010;2023-11-21T07:41:17;3.73;;;3.30;;
54460;SDS011;69977;49.414;11.010;2023-11-21T07:43:43;4.23;;;3.70;;
54460;SDS011;69977;49.414;11.010;2023-11-21T07:46:10;4.57;;;3.40;;
54460;SDS011;69977;49.414;11.010;2023-11-21T07:48:40;5.70;;;3.30;;
54460;SDS011;69977;49.414;11.010;2023-11-21T07:51:11;5.67;;;3.53;;
54460;SDS011;69977;49.414;11.010;2023-11-21T07:53:38;3.83;;;2.80;;
54460;SDS011;69977;49.414;11.010;2023-11-21T07:56:07;4.77;;;3.30;;
54460;SDS011;69977;49.414;11.010;2023-11-21T07:58:34;3.80;;;3.27;;
54460;SDS011;69977;49.414;11.010;2023-11-21T08:01:01;4.47;;;2.77;;
54460;SDS011;69977;49.414;11.010;2023-11-21T08:03:28;3.47;;;3.17;;
54460;SDS011;69977;49.414;11.010;2023-11-21T08:05:57;4.50;;;3.43;;
54460;SDS011;69977;49.414;11.010;2023-11-21T08:08:24;4.67;;;3.07;;
54460;SDS011;69977;49.414;11.010;2023-11-21T08:10:51;2.77;;;2.53;;
54460;SDS011;69977;49.414;11.010;2023-11-21T08:13:23;8.23;;;3.00;;
54460;SDS011;69977;49.414;11.010;2023-11-21T08:15:54;5.70;;;2.40;;
54460;SDS011;69977;49.414;11.010;2023-11-21T08:18:21;3.23;;;2.97;;
54460;SDS011;69977;49.414;11.010;2023-11-21T08:20:47;4.80;;;2.90;;
54460;SDS011;69977;49.414;11.010;2023-11-21T08:23:16;2.90;;;2.70;;
54460;SDS011;69977;49.414;11.010;2023-11-21T08:25:45;3.80;;;2.53;;
54460;SDS011;69977;49.414;11.010;2023-11-21T08:28:10;3.47;;;3.10;;
54460;SDS011;69977;49.414;11.010;2023-11-21T08:30:37;3.60;;;3.30;;
54460;SDS011;69977;49.414;11.010;2023-11-21T08:33:03;3.17;;;2.97;;
54460;SDS011;69977;49.414;11.010;2023-11-21T08:35:29;6.67;;;3.27;;
54460;SDS011;69977;49.414;11.010;2023-11-21T08:37:55;3.47;;;3.20;;
54460;SDS011;69977;49.414;11.010;2023-11-21T08:40:21;3.20;;;2.90;;
54460;SDS011;69977;49.414;11.010;2023-11-21T08:42:47;5.00;;;3.13;;
54460;SDS011;69977;49.414;11.010;2023-11-21T08:45:14;4.20;;;2.60;;
54460;SDS011;69977;49.414;11.010;2023-11-21T08:47:40;4.37;;;3.17;;
54460;SDS011;69977;49.414;11.010;2023-11-21T08:50:06;3.13;;;2.83;;
54460;SDS011;69977;49.414;11.010;2023-11-21T08:52:33;2.77;;;2.57;;
54460;SDS011;69977;49.414;11.010;2023-11-21T08:55:00;2.80;;;2.60;;
54460;SDS011;69977;49.414;11.010;2023-11-21T08:57:35;5.23;;;2.93;;
54460;SDS011;69977;49.414;11.010;2023-11-21T09:00:03;4.00;;;2.73;;
54460;SDS011;69977;49.414;11.010;2023-11-21T09:02:32;2.67;;;2.30;;
54460;SDS011;69977;49.414;11.010;2023-11-21T09:05:02;3.10;;;2.20;;
54460;SDS011;69977;49.414;11.010;2023-11-21T09:07:29;3.43;;;2.80;;
54460;SDS011;69977;49.414;11.010;2023-11-21T09:09:55;4.77;;;3.17;;
54460;SDS011;69977;49.414;11.010;2023-11-21T09:12:21;3.03;;;2.70;;
54460;SDS011;69977;49.414;11.010;2023-11-21T09:14:47;3.30;;;2.67;;
54460;SDS011;69977;49.414;11.010;2023-11-21T09:17:16;6.57;;;2.97;;
54460;SDS011;69977;49.414;11.010;2023-11-21T09:19:41;4.93;;;2.60;;
54460;SDS011;69977;49.414;11.010;2023-11-21T09:22:15;4.03;;;3.10;;
54460;SDS011;69977;49.414;11.010;2023-11-21T09:24:42;3.67;;;2.80;;
54460;SDS011;69977;49.414;11.010;2023-11-21T09:27:08;3.13;;;2.80;;
54460;SDS011;69977;49.414;11.010;2023-11-21T09:29:35;2.63;;;2.43;;
54460;SDS011;69977;49.414;11.010;2023-11-21T09:32:03;3.23;;;2.73;;
54460;SDS011;69977;49.414;11.010;2023-11-21T09:34:32;3.17;;;2.97;;
54460;SDS011;69977;49.414;11.010;2023-11-21T09:37:04;3.87;;;3.00;;
54460;SDS011;69977;49.414;11.010;2023-11-21T09:39:31;3.07;;;2.87;;
54460;SDS011;69977;49.414;11.010;2023-11-21T09:47:59;3.90;;;3.03;;
54460;SDS011;69977;49.414;11.010;2023-11-21T09:50:26;3.37;;;3.07;;
54460;SDS011;69977;49.414;11.010;2023-11-21T09:55:35;4.13;;;3.10;;
54460;SDS011;69977;49.414;11.010;2023-11-21T09:58:04;5.33;;;3.30;;
54460;SDS011;69977;49.414;11.010;2023-11-21T10:00:32;3.27;;;2.97;;
54460;SDS011;69977;49.414;11.010;2023-11-21T10:02:59;3.57;;;3.10;;
54460;SDS011;69977;49.414;11.010;2023-11-21T10:05:25;4.30;;;3.40;;
54460;SDS011;69977;49.414;11.010;2023-11-21T10:07:51;3.87;;;3.43;;
54460;SDS011;69977;49.414;11.010;2023-11-21T10:10:19;5.80;;;3.17;;
54460;SDS011;69977;49.414;11.010;2023-11-21T10:12:48;3.87;;;3.20;;
54460;SDS011;69977;49.414;11.010;2023-11-21T10:15:18;3.17;;;2.97;;
54460;SDS011;69977;49.414;11.010;2023-11-21T10:17:46;4.70;;;3.70;;
54460;SDS011;69977;49.414;11.010;2023-11-21T10:20:14;4.97;;;3.73;;
54460;SDS011;69977;49.414;11.010;2023-11-21T10:22:41;5.17;;;3.47;;
54460;SDS011;69977;49.414;11.010;2023-11-21T10:25:11;4.47;;;3.70;;
54460;SDS011;69977;49.414;11.010;2023-11-21T10:27:39;5.77;;;4.17;;
54460;SDS011;69977;49.414;11.010;2023-11-21T10:30:09;4.40;;;3.60;;
54460;SDS011;69977;49.414;11.010;2023-11-21T10:32:40;5.57;;;4.40;;
54460;SDS011;69977;49.414;11.010;2023-11-21T10:35:06;7.47;;;3.70;;
54460;SDS011;69977;49.414;11.010;2023-11-21T10:37:44;3.97;;;3.60;;
54460;SDS011;69977;49.414;11.010;2023-11-21T10:40:27;4.10;;;3.80;;
54460;SDS011;69977;49.414;11.010;2023-11-21T10:42:54;4.87;;;3.73;;
54460;SDS011;69977;49.414;11.010;2023-11-21T10:45:23;3.73;;;3.43;;
54460;SDS011;69977;49.414;11.010;2023-11-21T10:47:49;4.13;;;3.23;;
54460;SDS011;69977;49.414;11.010;2023-11-21T10:50:18;4.30;;;3.90;;
54460;SDS011;69977;49.414;11.010;2023-11-21T10:52:44;4.23;;;3.83;;
54460;SDS011;69977;49.414;11.010;2023-11-21T10:55:18;3.93;;;3.63;;
54460;SDS011;69977;49.414;11.010;2023-11-21T10:57:52;4.03;;;3.63;;
54460;SDS011;69977;49.414;11.010;2023-11-21T11:00:19;4.73;;;3.80;;
54460;SDS011;69977;49.414;11.010;2023-11-21T11:02:51;4.50;;;4.00;;
54460;SDS011;69977;49.414;11.010;2023-11-21T11:05:24;4.73;;;3.77;;
54460;SDS011;69977;49.414;11.010;2023-11-21T11:10:31;6.90;;;4.20;;
54460;SDS011;69977;49.414;11.010;2023-11-21T11:12:57;6.50;;;3.97;;
54460;SDS011;69977;49.414;11.010;2023-11-21T11:15:24;5.10;;;4.30;;
54460;SDS011;69977;49.414;11.010;2023-11-21T11:17:52;4.00;;;3.70;;
54460;SDS011;69977;49.414;11.010;2023-11-21T11:20:22;6.30;;;3.90;;
54460;SDS011;69977;49.414;11.010;2023-11-21T11:28:18;2.90;;;2.70;;
54460;SDS011;69977;49.414;11.010;2023-11-21T11:33:40;3.90;;;2.93;;
54460;SDS011;69977;49.414;11.010;2023-11-21T11:38:46;3.53;;;3.20;;
54460;SDS011;69977;49.414;11.010;2023-11-21T11:41:19;3.90;;;3.60;;
54460;SDS011;69977;49.414;11.010;2023-11-21T11:43:57;4.00;;;3.33;;
54460;SDS011;69977;49.414;11.010;2023-11-21T11:46:44;3.53;;;2.80;;
54460;SDS011;69977;49.414;11.010;2023-11-21T11:49:23;3.20;;;3.00;;
54460;SDS011;69977;49.414;11.010;2023-11-21T11:54:56;3.57;;;3.27;;
54460;SDS011;69977;49.414;11.010;2023-11-21T11:57:24;3.57;;;3.00;;
54460;SDS011;69977;49.414;11.010;2023-11-21T12:02:46;4.37;;;3.10;;
54460;SDS011;69977;49.414;11.010;2023-11-21T12:05:14;3.10;;;2.77;;
54460;SDS011;69977;49.414;11.010;2023-11-21T12:07:44;3.03;;;2.73;;
54460;SDS011;69977;49.414;11.010;2023-11-21T12:10:17;3.33;;;2.70;;
54460;SDS011;69977;49.414;11.010;2023-11-21T12:12:45;2.23;;;2.13;;
54460;SDS011;69977;49.414;11.010;2023-11-21T12:15:12;3.00;;;2.70;;
54460;SDS011;69977;49.414;11.010;2023-11-21T12:17:39;3.47;;;2.80;;
54460;SDS011;69977;49.414;11.010;2023-11-21T12:20:07;2.80;;;2.60;;
54460;SDS011;69977;49.414;11.010;2023-11-21T12:25:15;2.97;;;2.50;;
54460;SDS011;69977;49.414;11.010;2023-11-21T12:27:47;3.03;;;2.80;;
54460;SDS011;69977;49.414;11.010;2023-11-21T12:30:18;2.50;;;2.30;;
54460;SDS011;69977;49.414;11.010;2023-11-21T12:32:47;4.00;;;2.87;;
54460;SDS011;69977;49.414;11.010;2023-11-21T12:35:16;3.30;;;2.97;;
54460;SDS011;69977;49.414;11.010;2023-11-21T12:37:44;3.30;;;2.70;;
54460;SDS011;69977;49.414;11.010;2023-11-21T12:40:12;3.27;;;2.57;;
54460;SDS011;69977;49.414;11.010;2023-11-21T12:42:43;2.90;;;2.70;;
54460;SDS011;69977;49.414;11.010;2023-11-21T12:47:54;3.23;;;2.90;;
54460;SDS011;69977;49.414;11.010;2023-11-21T12:50:32;3.07;;;2.73;;
54460;SDS011;69977;49.414;11.010;2023-11-21T12:53:02;4.27;;;3.10;;
54460;SDS011;69977;49.414;11.010;2023-11-21T12:55:33;4.10;;;2.63;;
54460;SDS011;69977;49.414;11.010;2023-11-21T12:58:03;4.07;;;3.67;;
54460;SDS011;69977;49.414;11.010;2023-11-21T13:03:05;2.83;;;2.50;;
54460;SDS011;69977;49.414;11.010;2023-11-21T13:05:39;2.73;;;2.53;;
54460;SDS011;69977;49.414;11.010;2023-11-21T13:08:09;7.00;;;6.30;;
54460;SDS011;69977;49.414;11.010;2023-11-21T13:10:41;10.43;;;7.77;;
54460;SDS011;69977;49.414;11.010;2023-11-21T13:13:11;3.73;;;3.43;;
54460;SDS011;69977;49.414;11.010;2023-11-21T13:15:55;3.57;;;3.27;;
54460;SDS011;69977;49.414;11.010;2023-11-21T13:18:27;2.50;;;2.30;;
54460;SDS011;69977;49.414;11.010;2023-11-21T13:20:57;3.10;;;2.43;;
54460;SDS011;69977;49.414;11.010;2023-11-21T13:23:24;4.30;;;2.57;;
54460;SDS011;69977;49.414;11.010;2023-11-21T13:25:52;3.70;;;3.30;;
54460;SDS011;69977;49.414;11.010;2023-11-21T13:28:18;3.17;;;2.87;;
54460;SDS011;69977;49.414;11.010;2023-11-21T13:30:46;3.53;;;2.60;;
54460;SDS011;69977;49.414;11.010;2023-11-21T13:33:13;5.03;;;3.10;;
54460;SDS011;69977;49.414;11.010;2023-11-21T13:35:46;3.80;;;3.10;;
54460;SDS011;69977;49.414;11.010;2023-11-21T13:38:17;4.43;;;2.50;;
54460;SDS011;69977;49.414;11.010;2023-11-21T13:40:47;4.00;;;2.93;;
54460;SDS011;69977;49.414;11.010;2023-11-21T13:43:21;2.73;;;2.50;;
54460;SDS011;69977;49.414;11.010;2023-11-21T13:45:50;3.70;;;3.20;;
54460;SDS011;69977;49.414;11.010;2023-11-21T13:48:26;3.03;;;2.73;;
54460;SDS011;69977;49.414;11.010;2023-11-21T13:51:06;3.67;;;3.37;;
54460;SDS011;69977;49.414;11.010;2023-11-21T13:53:46;3.37;;;2.83;;
54460;SDS011;69977;49.414;11.010;2023-11-21T13:56:17;3.07;;;2.53;;
54460;SDS011;69977;49.414;11.010;2023-11-21T13:58:49;2.57;;;2.10;;
54460;SDS011;69977;49.414;11.010;2023-11-21T14:01:19;2.50;;;2.30;;
54460;SDS011;69977;49.414;11.010;2023-11-21T14:03:58;3.47;;;1.90;;
54460;SDS011;69977;49.414;11.010;2023-11-21T14:06:34;2.23;;;1.83;;
54460;SDS011;69977;49.414;11.010;2023-11-21T14:09:07;2.00;;;1.77;;
54460;SDS011;69977;49.414;11.010;2023-11-21T14:11:33;2.00;;;1.50;;
54460;SDS011;69977;49.414;11.010;2023-11-21T14:13:59;1.73;;;1.57;;
54460;SDS011;69977;49.414;11.010;2023-11-21T14:16:25;1.77;;;1.67;;
54460;SDS011;69977;49.414;11.010;2023-11-21T14:18:51;2.60;;;1.50;;
54460;SDS011;69977;49.414;11.010;2023-11-21T14:21:29;2.23;;;1.60;;
54460;SDS011;69977;49.414;11.010;2023-11-21T14:23:55;2.10;;;1.90;;
54460;SDS011;69977;49.414;11.010;2023-11-21T14:26:21;2.27;;;2.00;;
54460;SDS011;69977;49.414;11.010;2023-11-21T14:28:48;1.87;;;1.73;;
54460;SDS011;69977;49.414;11.010;2023-11-21T14:31:14;2.50;;;1.70;;
54460;SDS011;69977;49.414;11.010;2023-11-21T14:33:42;2.50;;;1.60;;
54460;SDS011;69977;49.414;11.010;2023-11-21T14:36:11;1.83;;;1.43;;
54460;SDS011;69977;49.414;11.010;2023-11-21T14:38:37;2.00;;;1.83;;
54460;SDS011;69977;49.414;11.010;2023-11-21T14:41:05;1.67;;;1.27;;
54460;SDS011;69977;49.414;11.010;2023-11-21T14:43:33;3.30;;;1.50;;
54460;SDS011;69977;49.414;11.010;2023-11-21T14:46:04;2.17;;;1.60;;
54460;SDS011;69977;49.414;11.010;2023-11-21T14:48:34;4.70;;;2.40;;
54460;SDS011;69977;49.414;11.010;2023-11-21T14:51:12;2.63;;;1.90;;
54460;SDS011;69977;49.414;11.010;2023-11-21T14:53:37;3.30;;;1.60;;
54460;SDS011;69977;49.414;11.010;2023-11-21T14:56:20;4.60;;;1.33;;
54460;SDS011;69977;49.414;11.010;2023-11-21T14:58:54;2.63;;;1.47;;
54460;SDS011;69977;49.414;11.010;2023-11-21T15:01:21;4.63;;;4.23;;
54460;SDS011;69977;49.414;11.010;2023-11-21T15:04:07;5.13;;;4.63;;
54460;SDS011;69977;49.414;11.010;2023-11-21T15:06:40;6.70;;;6.00;;
54460;SDS011;69977;49.414;11.010;2023-11-21T15:09:08;2.30;;;1.73;;
54460;SDS011;69977;49.414;11.010;2023-11-21T15:11:34;2.73;;;1.80;;
54460;SDS011;69977;49.414;11.010;2023-11-21T15:14:02;1.87;;;1.77;;